sensor_id;sensor_type;location;lat;lon;timestamp;P1;durP1;ratioP1;P2;durP2;ratioP2
15990;SDS011;8100;50.994;4.538;2023-04-19T00:00:19;17.00;;;12.57;;
15990;SDS011;8100;50.994;4.538;2023-04-19T00:03:06;16.77;;;11.77;;
15990;SDS011;8100;50.994;4.538;2023-04-19T00:05:54;16.80;;;12.68;;
15990;SDS011;8100;50.994;4.538;2023-04-19T00:08:44;16.45;;;12.60;;
15990;SDS011;8100;50.994;4.538;2023-04-19T00:11:32;14.95;;;11.65;;
15990;SDS011;8100;50.994;4.538;2023-04-19T00:14:19;18.42;;;12.82;;
15990;SDS011;8100;50.994;4.538;2023-04-19T00:17:06;18.92;;;12.45;;
15990;SDS011;8100;50.994;4.538;2023-04-19T00:19:55;19.60;;;13.38;;
15990;SDS011;8100;50.994;4.538;2023-04-19T00:22:43;18.33;;;12.38;;
15990;SDS011;8100;50.994;4.538;2023-04-19T00:25:31;16.52;;;12.30;;
15990;SDS011;8100;50.994;4.538;2023-04-19T00:28:19;21.30;;;14.55;;
15990;SDS011;8100;50.994;4.538;2023-04-19T00:31:06;17.60;;;12.80;;
15990;SDS011;8100;50.994;4.538;2023-04-19T00:33:53;15.63;;;11.65;;
15990;SDS011;8100;50.994;4.538;2023-04-19T00:36:40;17.65;;;12.38;;
15990;SDS011;8100;50.994;4.538;2023-04-19T00:39:27;17.95;;;12.95;;
15990;SDS011;8100;50.994;4.538;2023-04-19T00:42:16;19.02;;;13.15;;
15990;SDS011;8100;50.994;4.538;2023-04-19T00:45:03;17.20;;;10.73;;
15990;SDS011;8100;50.994;4.538;2023-04-19T00:47:51;18.45;;;12.60;;
15990;SDS011;8100;50.994;4.538;2023-04-19T00:50:39;17.58;;;12.90;;
15990;SDS011;8100;50.994;4.538;2023-04-19T00:53:27;16.58;;;12.32;;
15990;SDS011;8100;50.994;4.538;2023-04-19T00:56:14;17.95;;;13.00;;
15990;SDS011;8100;50.994;4.538;2023-04-19T00:59:04;17.05;;;12.82;;
15990;SDS011;8100;50.994;4.538;2023-04-19T01:01:52;16.85;;;12.88;;
15990;SDS011;8100;50.994;4.538;2023-04-19T01:04:39;16.83;;;12.38;;
15990;SDS011;8100;50.994;4.538;2023-04-19T01:07:27;18.65;;;12.73;;
15990;SDS011;8100;50.994;4.538;2023-04-19T01:10:14;16.85;;;12.02;;
15990;SDS011;8100;50.994;4.538;2023-04-19T01:13:01;21.75;;;13.23;;
15990;SDS011;8100;50.994;4.538;2023-04-19T01:15:50;17.02;;;12.88;;
15990;SDS011;8100;50.994;4.538;2023-04-19T01:18:37;16.80;;;12.55;;
15990;SDS011;8100;50.994;4.538;2023-04-19T01:21:25;19.02;;;14.00;;
15990;SDS011;8100;50.994;4.538;2023-04-19T01:24:15;18.25;;;12.32;;
15990;SDS011;8100;50.994;4.538;2023-04-19T01:27:02;16.98;;;12.07;;
15990;SDS011;8100;50.994;4.538;2023-04-19T01:29:49;19.85;;;13.50;;
15990;SDS011;8100;50.994;4.538;2023-04-19T01:32:36;15.93;;;11.70;;
15990;SDS011;8100;50.994;4.538;2023-04-19T01:35:24;16.77;;;12.15;;
15990;SDS011;8100;50.994;4.538;2023-04-19T01:38:11;16.92;;;12.27;;
15990;SDS011;8100;50.994;4.538;2023-04-19T01:40:59;17.38;;;12.60;;
15990;SDS011;8100;50.994;4.538;2023-04-19T01:43:47;17.13;;;12.43;;
15990;SDS011;8100;50.994;4.538;2023-04-19T01:46:34;16.27;;;11.85;;
15990;SDS011;8100;50.994;4.538;2023-04-19T01:49:23;17.83;;;12.73;;
15990;SDS011;8100;50.994;4.538;2023-04-19T01:52:10;20.52;;;13.52;;
15990;SDS011;8100;50.994;4.538;2023-04-19T01:54:57;17.98;;;12.15;;
15990;SDS011;8100;50.994;4.538;2023-04-19T01:57:46;17.50;;;12.18;;
15990;SDS011;8100;50.994;4.538;2023-04-19T02:00:33;18.17;;;12.75;;
15990;SDS011;8100;50.994;4.538;2023-04-19T02:03:20;17.85;;;12.95;;
15990;SDS011;8100;50.994;4.538;2023-04-19T02:06:09;17.00;;;12.45;;
15990;SDS011;8100;50.994;4.538;2023-04-19T02:08:57;18.38;;;12.82;;
15990;SDS011;8100;50.994;4.538;2023-04-19T02:11:44;18.08;;;13.45;;
15990;SDS011;8100;50.994;4.538;2023-04-19T02:14:33;15.70;;;11.90;;
15990;SDS011;8100;50.994;4.538;2023-04-19T02:17:21;18.27;;;12.65;;
15990;SDS011;8100;50.994;4.538;2023-04-19T02:20:08;17.95;;;13.20;;
15990;SDS011;8100;50.994;4.538;2023-04-19T02:22:56;18.65;;;13.15;;
15990;SDS011;8100;50.994;4.538;2023-04-19T02:25:43;17.40;;;12.90;;
15990;SDS011;8100;50.994;4.538;2023-04-19T02:28:30;18.30;;;12.55;;
15990;SDS011;8100;50.994;4.538;2023-04-19T02:31:19;17.90;;;13.18;;
15990;SDS011;8100;50.994;4.538;2023-04-19T02:34:06;18.00;;;13.13;;
15990;SDS011;8100;50.994;4.538;2023-04-19T02:36:53;19.52;;;12.82;;
15990;SDS011;8100;50.994;4.538;2023-04-19T02:39:41;17.27;;;13.07;;
15990;SDS011;8100;50.994;4.538;2023-04-19T02:42:28;17.65;;;12.82;;
15990;SDS011;8100;50.994;4.538;2023-04-19T02:45:15;18.98;;;12.93;;
15990;SDS011;8100;50.994;4.538;2023-04-19T02:48:04;16.75;;;12.52;;
15990;SDS011;8100;50.994;4.538;2023-04-19T02:50:51;17.25;;;13.15;;
15990;SDS011;8100;50.994;4.538;2023-04-19T02:53:39;18.50;;;12.68;;
15990;SDS011;8100;50.994;4.538;2023-04-19T02:56:26;16.00;;;12.43;;
15990;SDS011;8100;50.994;4.538;2023-04-19T02:59:13;18.23;;;12.57;;
15990;SDS011;8100;50.994;4.538;2023-04-19T03:02:00;16.05;;;11.63;;
15990;SDS011;8100;50.994;4.538;2023-04-19T03:04:49;17.63;;;13.40;;
15990;SDS011;8100;50.994;4.538;2023-04-19T03:07:37;15.65;;;11.85;;
15990;SDS011;8100;50.994;4.538;2023-04-19T03:10:24;17.45;;;12.90;;
15990;SDS011;8100;50.994;4.538;2023-04-19T03:13:11;16.88;;;12.30;;
15990;SDS011;8100;50.994;4.538;2023-04-19T03:15:59;17.00;;;12.75;;
15990;SDS011;8100;50.994;4.538;2023-04-19T03:18:46;17.05;;;12.57;;
15990;SDS011;8100;50.994;4.538;2023-04-19T03:21:34;16.95;;;12.45;;
15990;SDS011;8100;50.994;4.538;2023-04-19T03:24:25;16.33;;;12.07;;
15990;SDS011;8100;50.994;4.538;2023-04-19T03:27:13;15.98;;;11.63;;
15990;SDS011;8100;50.994;4.538;2023-04-19T03:30:00;18.48;;;12.40;;
15990;SDS011;8100;50.994;4.538;2023-04-19T03:32:47;15.65;;;11.75;;
15990;SDS011;8100;50.994;4.538;2023-04-19T03:35:36;17.15;;;12.02;;
15990;SDS011;8100;50.994;4.538;2023-04-19T03:38:25;18.08;;;13.23;;
15990;SDS011;8100;50.994;4.538;2023-04-19T03:41:18;17.33;;;12.88;;
15990;SDS011;8100;50.994;4.538;2023-04-19T03:44:05;16.70;;;12.40;;
15990;SDS011;8100;50.994;4.538;2023-04-19T03:46:53;18.00;;;12.77;;
15990;SDS011;8100;50.994;4.538;2023-04-19T03:49:40;16.80;;;12.43;;
15990;SDS011;8100;50.994;4.538;2023-04-19T03:52:27;16.70;;;12.18;;
15990;SDS011;8100;50.994;4.538;2023-04-19T03:55:15;17.50;;;12.23;;
15990;SDS011;8100;50.994;4.538;2023-04-19T03:58:03;15.63;;;10.63;;
15990;SDS011;8100;50.994;4.538;2023-04-19T04:00:50;17.25;;;12.60;;
15990;SDS011;8100;50.994;4.538;2023-04-19T04:03:38;19.17;;;13.02;;
15990;SDS011;8100;50.994;4.538;2023-04-19T04:06:25;17.02;;;12.40;;
15990;SDS011;8100;50.994;4.538;2023-04-19T04:09:12;17.98;;;12.13;;
15990;SDS011;8100;50.994;4.538;2023-04-19T04:12:01;16.48;;;11.93;;
15990;SDS011;8100;50.994;4.538;2023-04-19T04:14:48;18.80;;;12.65;;
15990;SDS011;8100;50.994;4.538;2023-04-19T04:17:35;17.42;;;11.45;;
15990;SDS011;8100;50.994;4.538;2023-04-19T04:20:22;19.00;;;12.07;;
15990;SDS011;8100;50.994;4.538;2023-04-19T04:23:10;18.55;;;12.50;;
15990;SDS011;8100;50.994;4.538;2023-04-19T04:25:57;17.08;;;12.20;;
15990;SDS011;8100;50.994;4.538;2023-04-19T04:28:47;19.88;;;12.25;;
15990;SDS011;8100;50.994;4.538;2023-04-19T04:31:34;17.88;;;12.38;;
15990;SDS011;8100;50.994;4.538;2023-04-19T04:34:21;18.23;;;13.07;;
15990;SDS011;8100;50.994;4.538;2023-04-19T04:37:09;20.48;;;12.13;;
15990;SDS011;8100;50.994;4.538;2023-04-19T04:39:56;21.00;;;13.40;;
15990;SDS011;8100;50.994;4.538;2023-04-19T04:42:44;19.13;;;12.63;;
15990;SDS011;8100;50.994;4.538;2023-04-19T04:45:32;22.33;;;13.75;;
15990;SDS011;8100;50.994;4.538;2023-04-19T04:48:19;20.33;;;13.50;;
15990;SDS011;8100;50.994;4.538;2023-04-19T04:51:06;16.90;;;10.75;;
15990;SDS011;8100;50.994;4.538;2023-04-19T04:53:54;20.02;;;13.27;;
15990;SDS011;8100;50.994;4.538;2023-04-19T04:56:41;20.50;;;10.88;;
15990;SDS011;8100;50.994;4.538;2023-04-19T04:59:28;19.48;;;13.43;;
15990;SDS011;8100;50.994;4.538;2023-04-19T05:02:17;18.67;;;12.43;;
15990;SDS011;8100;50.994;4.538;2023-04-19T05:05:04;21.20;;;13.32;;
15990;SDS011;8100;50.994;4.538;2023-04-19T05:07:56;18.42;;;13.15;;
15990;SDS011;8100;50.994;4.538;2023-04-19T05:10:43;19.75;;;12.93;;
15990;SDS011;8100;50.994;4.538;2023-04-19T05:13:30;9.20;;;4.82;;
15990;SDS011;8100;50.994;4.538;2023-04-19T05:16:18;21.05;;;12.20;;
15990;SDS011;8100;50.994;4.538;2023-04-19T05:19:06;20.60;;;13.23;;
15990;SDS011;8100;50.994;4.538;2023-04-19T05:21:53;21.10;;;13.10;;
15990;SDS011;8100;50.994;4.538;2023-04-19T05:24:41;21.35;;;13.30;;
15990;SDS011;8100;50.994;4.538;2023-04-19T05:27:28;17.95;;;12.93;;
15990;SDS011;8100;50.994;4.538;2023-04-19T05:30:15;17.38;;;10.30;;
15990;SDS011;8100;50.994;4.538;2023-04-19T05:33:02;17.95;;;12.13;;
15990;SDS011;8100;50.994;4.538;2023-04-19T05:35:51;22.25;;;13.10;;
15990;SDS011;8100;50.994;4.538;2023-04-19T05:38:38;18.67;;;12.90;;
15990;SDS011;8100;50.994;4.538;2023-04-19T05:41:25;20.45;;;12.77;;
15990;SDS011;8100;50.994;4.538;2023-04-19T05:44:12;17.00;;;12.05;;
15990;SDS011;8100;50.994;4.538;2023-04-19T05:47:00;20.70;;;12.13;;
15990;SDS011;8100;50.994;4.538;2023-04-19T05:49:47;15.07;;;9.18;;
15990;SDS011;8100;50.994;4.538;2023-04-19T05:52:35;20.55;;;11.23;;
15990;SDS011;8100;50.994;4.538;2023-04-19T05:55:22;22.73;;;13.13;;
15990;SDS011;8100;50.994;4.538;2023-04-19T05:58:10;17.38;;;11.75;;
15990;SDS011;8100;50.994;4.538;2023-04-19T06:00:57;21.10;;;11.90;;
15990;SDS011;8100;50.994;4.538;2023-04-19T06:03:45;16.25;;;12.18;;
15990;SDS011;8100;50.994;4.538;2023-04-19T06:06:37;18.67;;;11.93;;
15990;SDS011;8100;50.994;4.538;2023-04-19T06:09:25;16.13;;;10.68;;
15990;SDS011;8100;50.994;4.538;2023-04-19T06:12:12;17.10;;;11.70;;
15990;SDS011;8100;50.994;4.538;2023-04-19T06:15:00;17.38;;;12.23;;
15990;SDS011;8100;50.994;4.538;2023-04-19T06:17:47;17.75;;;11.18;;
15990;SDS011;8100;50.994;4.538;2023-04-19T06:20:34;16.95;;;11.52;;
15990;SDS011;8100;50.994;4.538;2023-04-19T06:23:21;16.92;;;11.38;;
15990;SDS011;8100;50.994;4.538;2023-04-19T06:26:11;15.38;;;11.07;;
15990;SDS011;8100;50.994;4.538;2023-04-19T06:28:58;18.05;;;11.32;;
15990;SDS011;8100;50.994;4.538;2023-04-19T06:31:45;21.45;;;11.93;;
15990;SDS011;8100;50.994;4.538;2023-04-19T06:34:32;21.02;;;12.00;;
15990;SDS011;8100;50.994;4.538;2023-04-19T06:37:20;16.15;;;11.18;;
15990;SDS011;8100;50.994;4.538;2023-04-19T06:40:07;14.38;;;10.90;;
15990;SDS011;8100;50.994;4.538;2023-04-19T06:42:57;15.38;;;10.45;;
15990;SDS011;8100;50.994;4.538;2023-04-19T06:45:44;15.30;;;10.48;;
15990;SDS011;8100;50.994;4.538;2023-04-19T06:48:32;16.52;;;11.20;;
15990;SDS011;8100;50.994;4.538;2023-04-19T06:51:20;17.40;;;11.55;;
15990;SDS011;8100;50.994;4.538;2023-04-19T06:54:07;16.80;;;9.15;;
15990;SDS011;8100;50.994;4.538;2023-04-19T06:56:54;16.83;;;11.13;;
15990;SDS011;8100;50.994;4.538;2023-04-19T06:59:43;18.88;;;12.20;;
15990;SDS011;8100;50.994;4.538;2023-04-19T07:02:30;16.60;;;10.65;;
15990;SDS011;8100;50.994;4.538;2023-04-19T07:05:18;16.80;;;10.95;;
15990;SDS011;8100;50.994;4.538;2023-04-19T07:08:05;16.85;;;11.15;;
15990;SDS011;8100;50.994;4.538;2023-04-19T07:10:52;15.85;;;11.30;;
15990;SDS011;8100;50.994;4.538;2023-04-19T07:13:41;15.63;;;10.07;;
15990;SDS011;8100;50.994;4.538;2023-04-19T07:16:29;19.17;;;10.82;;
15990;SDS011;8100;50.994;4.538;2023-04-19T07:19:16;15.65;;;11.00;;
15990;SDS011;8100;50.994;4.538;2023-04-19T07:22:05;6.65;;;4.55;;
15990;SDS011;8100;50.994;4.538;2023-04-19T07:24:52;20.05;;;10.77;;
15990;SDS011;8100;50.994;4.538;2023-04-19T07:27:39;14.23;;;8.75;;
15990;SDS011;8100;50.994;4.538;2023-04-19T07:30:27;13.63;;;8.70;;
15990;SDS011;8100;50.994;4.538;2023-04-19T07:33:15;5.05;;;2.50;;
15990;SDS011;8100;50.994;4.538;2023-04-19T07:36:02;13.13;;;8.75;;
15990;SDS011;8100;50.994;4.538;2023-04-19T07:38:51;17.27;;;9.63;;
15990;SDS011;8100;50.994;4.538;2023-04-19T07:41:38;9.68;;;5.80;;
15990;SDS011;8100;50.994;4.538;2023-04-19T07:44:25;11.27;;;6.30;;
15990;SDS011;8100;50.994;4.538;2023-04-19T07:47:12;11.48;;;7.93;;
15990;SDS011;8100;50.994;4.538;2023-04-19T07:50:01;5.88;;;3.85;;
15990;SDS011;8100;50.994;4.538;2023-04-19T07:52:50;12.38;;;8.27;;
15990;SDS011;8100;50.994;4.538;2023-04-19T07:55:37;12.80;;;7.82;;
15990;SDS011;8100;50.994;4.538;2023-04-19T07:58:24;5.60;;;3.13;;
15990;SDS011;8100;50.994;4.538;2023-04-19T08:01:12;12.18;;;6.80;;
15990;SDS011;8100;50.994;4.538;2023-04-19T08:03:59;16.08;;;7.50;;
15990;SDS011;8100;50.994;4.538;2023-04-19T08:06:47;10.57;;;5.93;;
15990;SDS011;8100;50.994;4.538;2023-04-19T08:09:35;10.50;;;7.00;;
15990;SDS011;8100;50.994;4.538;2023-04-19T08:12:23;3.78;;;2.83;;
15990;SDS011;8100;50.994;4.538;2023-04-19T08:15:10;5.97;;;2.88;;
15990;SDS011;8100;50.994;4.538;2023-04-19T08:17:57;10.80;;;6.03;;
15990;SDS011;8100;50.994;4.538;2023-04-19T08:20:45;8.02;;;4.47;;
15990;SDS011;8100;50.994;4.538;2023-04-19T08:23:33;10.05;;;7.32;;
15990;SDS011;8100;50.994;4.538;2023-04-19T08:26:20;9.35;;;6.10;;
15990;SDS011;8100;50.994;4.538;2023-04-19T08:29:08;11.32;;;7.00;;
15990;SDS011;8100;50.994;4.538;2023-04-19T08:31:55;10.82;;;6.55;;
15990;SDS011;8100;50.994;4.538;2023-04-19T08:34:42;10.63;;;6.60;;
15990;SDS011;8100;50.994;4.538;2023-04-19T08:37:30;7.50;;;3.58;;
15990;SDS011;8100;50.994;4.538;2023-04-19T08:40:19;9.00;;;7.00;;
15990;SDS011;8100;50.994;4.538;2023-04-19T08:43:07;5.80;;;2.70;;
15990;SDS011;8100;50.994;4.538;2023-04-19T08:45:54;8.57;;;6.13;;
15990;SDS011;8100;50.994;4.538;2023-04-19T08:48:42;7.50;;;4.25;;
15990;SDS011;8100;50.994;4.538;2023-04-19T08:51:31;10.55;;;4.38;;
15990;SDS011;8100;50.994;4.538;2023-04-19T08:54:20;11.48;;;5.95;;
15990;SDS011;8100;50.994;4.538;2023-04-19T08:57:09;7.30;;;3.75;;
15990;SDS011;8100;50.994;4.538;2023-04-19T08:59:56;7.10;;;4.43;;
15990;SDS011;8100;50.994;4.538;2023-04-19T09:02:44;8.18;;;4.18;;
15990;SDS011;8100;50.994;4.538;2023-04-19T09:05:33;7.32;;;5.03;;
15990;SDS011;8100;50.994;4.538;2023-04-19T09:08:20;6.97;;;4.32;;
15990;SDS011;8100;50.994;4.538;2023-04-19T09:11:08;8.63;;;6.05;;
15990;SDS011;8100;50.994;4.538;2023-04-19T09:14:07;7.13;;;4.72;;
15990;SDS011;8100;50.994;4.538;2023-04-19T09:17:09;9.40;;;6.70;;
15990;SDS011;8100;50.994;4.538;2023-04-19T09:19:57;9.00;;;5.05;;
15990;SDS011;8100;50.994;4.538;2023-04-19T09:22:45;7.15;;;4.80;;
15990;SDS011;8100;50.994;4.538;2023-04-19T09:25:52;7.47;;;4.95;;
15990;SDS011;8100;50.994;4.538;2023-04-19T09:28:43;8.05;;;3.58;;
15990;SDS011;8100;50.994;4.538;2023-04-19T09:31:43;5.88;;;3.70;;
15990;SDS011;8100;50.994;4.538;2023-04-19T09:34:49;7.40;;;3.97;;
15990;SDS011;8100;50.994;4.538;2023-04-19T09:37:37;9.10;;;5.85;;
15990;SDS011;8100;50.994;4.538;2023-04-19T09:40:26;8.20;;;5.25;;
15990;SDS011;8100;50.994;4.538;2023-04-19T09:43:13;5.75;;;3.95;;
15990;SDS011;8100;50.994;4.538;2023-04-19T09:46:21;6.85;;;5.15;;
15990;SDS011;8100;50.994;4.538;2023-04-19T09:49:18;8.68;;;5.22;;
15990;SDS011;8100;50.994;4.538;2023-04-19T09:52:08;6.72;;;4.63;;
15990;SDS011;8100;50.994;4.538;2023-04-19T09:54:59;9.23;;;5.75;;
15990;SDS011;8100;50.994;4.538;2023-04-19T09:57:48;5.15;;;2.15;;
15990;SDS011;8100;50.994;4.538;2023-04-19T10:00:35;9.15;;;4.82;;
15990;SDS011;8100;50.994;4.538;2023-04-19T10:03:23;9.30;;;4.53;;
15990;SDS011;8100;50.994;4.538;2023-04-19T10:06:15;6.38;;;2.17;;
15990;SDS011;8100;50.994;4.538;2023-04-19T10:09:04;7.70;;;5.32;;
15990;SDS011;8100;50.994;4.538;2023-04-19T10:11:52;6.15;;;3.80;;
15990;SDS011;8100;50.994;4.538;2023-04-19T10:14:39;6.93;;;5.50;;
15990;SDS011;8100;50.994;4.538;2023-04-19T10:17:27;8.60;;;5.78;;
15990;SDS011;8100;50.994;4.538;2023-04-19T10:20:19;8.05;;;3.60;;
15990;SDS011;8100;50.994;4.538;2023-04-19T10:23:10;9.20;;;5.22;;
15990;SDS011;8100;50.994;4.538;2023-04-19T10:25:58;6.85;;;4.80;;
15990;SDS011;8100;50.994;4.538;2023-04-19T10:28:46;7.97;;;5.32;;
15990;SDS011;8100;50.994;4.538;2023-04-19T10:31:33;8.20;;;4.72;;
15990;SDS011;8100;50.994;4.538;2023-04-19T10:34:35;8.30;;;5.82;;
15990;SDS011;8100;50.994;4.538;2023-04-19T10:37:24;6.47;;;3.78;;
15990;SDS011;8100;50.994;4.538;2023-04-19T10:40:13;8.65;;;5.30;;
15990;SDS011;8100;50.994;4.538;2023-04-19T10:43:39;8.73;;;4.80;;
15990;SDS011;8100;50.994;4.538;2023-04-19T10:46:36;10.20;;;5.93;;
15990;SDS011;8100;50.994;4.538;2023-04-19T10:49:26;8.77;;;5.07;;
15990;SDS011;8100;50.994;4.538;2023-04-19T10:52:25;6.43;;;2.55;;
15990;SDS011;8100;50.994;4.538;2023-04-19T10:55:15;2.05;;;1.48;;
15990;SDS011;8100;50.994;4.538;2023-04-19T10:58:04;8.00;;;5.68;;
15990;SDS011;8100;50.994;4.538;2023-04-19T11:01:06;8.80;;;5.10;;
15990;SDS011;8100;50.994;4.538;2023-04-19T11:04:20;8.30;;;5.63;;
15990;SDS011;8100;50.994;4.538;2023-04-19T11:07:27;8.02;;;5.95;;
15990;SDS011;8100;50.994;4.538;2023-04-19T11:10:26;8.00;;;3.92;;
15990;SDS011;8100;50.994;4.538;2023-04-19T11:13:14;9.38;;;7.15;;
15990;SDS011;8100;50.994;4.538;2023-04-19T11:16:06;8.63;;;5.65;;
15990;SDS011;8100;50.994;4.538;2023-04-19T11:18:53;11.48;;;6.80;;
15990;SDS011;8100;50.994;4.538;2023-04-19T11:21:41;8.38;;;5.82;;
15990;SDS011;8100;50.994;4.538;2023-04-19T11:24:28;5.15;;;3.22;;
15990;SDS011;8100;50.994;4.538;2023-04-19T11:27:16;9.40;;;6.80;;
15990;SDS011;8100;50.994;4.538;2023-04-19T11:30:04;9.52;;;6.38;;
15990;SDS011;8100;50.994;4.538;2023-04-19T11:32:53;9.65;;;5.43;;
15990;SDS011;8100;50.994;4.538;2023-04-19T11:35:42;9.85;;;5.32;;
15990;SDS011;8100;50.994;4.538;2023-04-19T11:38:29;7.85;;;4.03;;
15990;SDS011;8100;50.994;4.538;2023-04-19T11:41:16;3.65;;;1.83;;
15990;SDS011;8100;50.994;4.538;2023-04-19T11:44:05;7.00;;;4.72;;
15990;SDS011;8100;50.994;4.538;2023-04-19T11:46:59;4.53;;;2.88;;
15990;SDS011;8100;50.994;4.538;2023-04-19T11:49:50;7.95;;;4.65;;
15990;SDS011;8100;50.994;4.538;2023-04-19T11:52:37;5.65;;;3.20;;
15990;SDS011;8100;50.994;4.538;2023-04-19T11:55:24;5.50;;;3.63;;
15990;SDS011;8100;50.994;4.538;2023-04-19T11:58:27;5.80;;;4.50;;
15990;SDS011;8100;50.994;4.538;2023-04-19T12:01:19;5.50;;;3.17;;
15990;SDS011;8100;50.994;4.538;2023-04-19T12:04:09;6.03;;;3.97;;
15990;SDS011;8100;50.994;4.538;2023-04-19T12:06:56;8.18;;;3.30;;
15990;SDS011;8100;50.994;4.538;2023-04-19T12:09:45;8.38;;;4.80;;
15990;SDS011;8100;50.994;4.538;2023-04-19T12:12:34;4.85;;;2.78;;
15990;SDS011;8100;50.994;4.538;2023-04-19T12:15:22;7.53;;;4.40;;
15990;SDS011;8100;50.994;4.538;2023-04-19T12:18:10;6.35;;;3.17;;
15990;SDS011;8100;50.994;4.538;2023-04-19T12:20:58;5.68;;;2.97;;
15990;SDS011;8100;50.994;4.538;2023-04-19T12:23:45;7.10;;;4.25;;
15990;SDS011;8100;50.994;4.538;2023-04-19T12:26:32;6.50;;;4.07;;
15990;SDS011;8100;50.994;4.538;2023-04-19T12:29:20;5.70;;;2.97;;
15990;SDS011;8100;50.994;4.538;2023-04-19T12:32:08;5.93;;;3.47;;
15990;SDS011;8100;50.994;4.538;2023-04-19T12:34:57;9.82;;;3.78;;
15990;SDS011;8100;50.994;4.538;2023-04-19T12:37:44;4.97;;;3.63;;
15990;SDS011;8100;50.994;4.538;2023-04-19T12:40:32;5.20;;;2.38;;
15990;SDS011;8100;50.994;4.538;2023-04-19T12:43:19;3.20;;;1.42;;
15990;SDS011;8100;50.994;4.538;2023-04-19T12:46:06;1.50;;;1.05;;
15990;SDS011;8100;50.994;4.538;2023-04-19T12:48:53;2.90;;;1.85;;
15990;SDS011;8100;50.994;4.538;2023-04-19T12:51:42;5.88;;;3.05;;
15990;SDS011;8100;50.994;4.538;2023-04-19T12:54:31;4.20;;;2.53;;
15990;SDS011;8100;50.994;4.538;2023-04-19T12:57:19;3.72;;;2.67;;
15990;SDS011;8100;50.994;4.538;2023-04-19T13:00:07;4.80;;;3.20;;
15990;SDS011;8100;50.994;4.538;2023-04-19T13:02:55;4.80;;;2.70;;
15990;SDS011;8100;50.994;4.538;2023-04-19T13:05:43;5.97;;;3.20;;
15990;SDS011;8100;50.994;4.538;2023-04-19T13:08:31;3.88;;;2.60;;
15990;SDS011;8100;50.994;4.538;2023-04-19T13:11:18;3.63;;;1.73;;
15990;SDS011;8100;50.994;4.538;2023-04-19T13:14:07;4.97;;;2.40;;
15990;SDS011;8100;50.994;4.538;2023-04-19T13:16:54;4.90;;;1.13;;
15990;SDS011;8100;50.994;4.538;2023-04-19T13:19:41;2.42;;;1.92;;
15990;SDS011;8100;50.994;4.538;2023-04-19T13:22:29;3.45;;;2.03;;
15990;SDS011;8100;50.994;4.538;2023-04-19T13:25:18;3.25;;;1.95;;
15990;SDS011;8100;50.994;4.538;2023-04-19T13:28:05;3.45;;;1.90;;
15990;SDS011;8100;50.994;4.538;2023-04-19T13:30:52;0.70;;;0.43;;
15990;SDS011;8100;50.994;4.538;2023-04-19T13:33:40;4.22;;;1.88;;
15990;SDS011;8100;50.994;4.538;2023-04-19T13:36:27;2.78;;;2.10;;
15990;SDS011;8100;50.994;4.538;2023-04-19T13:39:15;3.80;;;1.35;;
15990;SDS011;8100;50.994;4.538;2023-04-19T13:42:04;0.82;;;0.55;;
15990;SDS011;8100;50.994;4.538;2023-04-19T13:44:51;5.13;;;1.80;;
15990;SDS011;8100;50.994;4.538;2023-04-19T13:47:38;1.98;;;1.17;;
15990;SDS011;8100;50.994;4.538;2023-04-19T13:50:25;1.88;;;1.58;;
15990;SDS011;8100;50.994;4.538;2023-04-19T13:53:13;2.55;;;1.85;;
15990;SDS011;8100;50.994;4.538;2023-04-19T13:56:00;1.98;;;1.42;;
15990;SDS011;8100;50.994;4.538;2023-04-19T13:58:48;2.97;;;1.98;;
15990;SDS011;8100;50.994;4.538;2023-04-19T14:01:36;3.00;;;1.73;;
15990;SDS011;8100;50.994;4.538;2023-04-19T14:04:23;6.55;;;2.03;;
15990;SDS011;8100;50.994;4.538;2023-04-19T14:07:10;4.75;;;1.45;;
15990;SDS011;8100;50.994;4.538;2023-04-19T14:09:57;0.45;;;0.40;;
15990;SDS011;8100;50.994;4.538;2023-04-19T14:12:45;2.45;;;1.17;;
15990;SDS011;8100;50.994;4.538;2023-04-19T14:15:34;1.20;;;0.65;;
15990;SDS011;8100;50.994;4.538;2023-04-19T14:18:21;4.47;;;1.70;;
15990;SDS011;8100;50.994;4.538;2023-04-19T14:21:09;2.13;;;1.20;;
15990;SDS011;8100;50.994;4.538;2023-04-19T14:23:56;4.50;;;1.67;;
15990;SDS011;8100;50.994;4.538;2023-04-19T14:26:43;2.28;;;1.02;;
15990;SDS011;8100;50.994;4.538;2023-04-19T14:29:30;2.00;;;0.80;;
15990;SDS011;8100;50.994;4.538;2023-04-19T14:32:19;4.80;;;1.65;;
15990;SDS011;8100;50.994;4.538;2023-04-19T14:35:07;4.53;;;1.55;;
15990;SDS011;8100;50.994;4.538;2023-04-19T14:37:55;2.38;;;1.77;;
15990;SDS011;8100;50.994;4.538;2023-04-19T14:40:42;3.65;;;1.55;;
15990;SDS011;8100;50.994;4.538;2023-04-19T14:43:30;3.38;;;2.20;;
15990;SDS011;8100;50.994;4.538;2023-04-19T14:46:17;2.17;;;1.20;;
15990;SDS011;8100;50.994;4.538;2023-04-19T14:49:06;2.17;;;1.35;;
15990;SDS011;8100;50.994;4.538;2023-04-19T14:51:53;3.15;;;1.48;;
15990;SDS011;8100;50.994;4.538;2023-04-19T14:54:40;3.30;;;1.50;;
15990;SDS011;8100;50.994;4.538;2023-04-19T14:57:27;1.35;;;1.20;;
15990;SDS011;8100;50.994;4.538;2023-04-19T15:00:16;1.17;;;1.08;;
15990;SDS011;8100;50.994;4.538;2023-04-19T15:03:03;1.17;;;0.88;;
15990;SDS011;8100;50.994;4.538;2023-04-19T15:05:52;0.43;;;0.43;;
15990;SDS011;8100;50.994;4.538;2023-04-19T15:08:39;2.58;;;1.50;;
15990;SDS011;8100;50.994;4.538;2023-04-19T15:11:27;2.03;;;1.52;;
15990;SDS011;8100;50.994;4.538;2023-04-19T15:14:15;4.10;;;1.38;;
15990;SDS011;8100;50.994;4.538;2023-04-19T15:17:02;2.63;;;1.40;;
15990;SDS011;8100;50.994;4.538;2023-04-19T15:19:50;4.07;;;2.17;;
15990;SDS011;8100;50.994;4.538;2023-04-19T15:22:38;3.13;;;1.42;;
15990;SDS011;8100;50.994;4.538;2023-04-19T15:25:26;1.95;;;0.40;;
15990;SDS011;8100;50.994;4.538;2023-04-19T15:28:13;3.28;;;1.98;;
15990;SDS011;8100;50.994;4.538;2023-04-19T15:31:01;3.42;;;2.40;;
15990;SDS011;8100;50.994;4.538;2023-04-19T15:33:49;5.45;;;2.20;;
15990;SDS011;8100;50.994;4.538;2023-04-19T15:36:36;2.28;;;1.92;;
15990;SDS011;8100;50.994;4.538;2023-04-19T15:39:26;3.65;;;2.55;;
15990;SDS011;8100;50.994;4.538;2023-04-19T15:42:13;0.68;;;0.47;;
15990;SDS011;8100;50.994;4.538;2023-04-19T15:45:00;2.95;;;2.15;;
15990;SDS011;8100;50.994;4.538;2023-04-19T15:47:48;4.63;;;2.00;;
15990;SDS011;8100;50.994;4.538;2023-04-19T15:50:35;3.92;;;2.05;;
15990;SDS011;8100;50.994;4.538;2023-04-19T15:53:22;3.50;;;1.90;;
15990;SDS011;8100;50.994;4.538;2023-04-19T15:56:11;2.55;;;1.60;;
15990;SDS011;8100;50.994;4.538;2023-04-19T15:58:58;2.72;;;1.60;;
15990;SDS011;8100;50.994;4.538;2023-04-19T16:01:45;3.17;;;1.42;;
15990;SDS011;8100;50.994;4.538;2023-04-19T16:04:33;4.80;;;1.35;;
15990;SDS011;8100;50.994;4.538;2023-04-19T16:07:21;3.38;;;1.13;;
15990;SDS011;8100;50.994;4.538;2023-04-19T16:10:08;2.25;;;1.60;;
15990;SDS011;8100;50.994;4.538;2023-04-19T16:12:57;1.02;;;0.70;;
15990;SDS011;8100;50.994;4.538;2023-04-19T16:15:45;3.83;;;1.88;;
15990;SDS011;8100;50.994;4.538;2023-04-19T16:18:32;5.13;;;1.80;;
15990;SDS011;8100;50.994;4.538;2023-04-19T16:21:19;5.72;;;2.50;;
15990;SDS011;8100;50.994;4.538;2023-04-19T16:24:07;6.13;;;2.45;;
15990;SDS011;8100;50.994;4.538;2023-04-19T16:26:54;2.65;;;1.90;;
15990;SDS011;8100;50.994;4.538;2023-04-19T16:29:43;1.45;;;1.23;;
15990;SDS011;8100;50.994;4.538;2023-04-19T16:32:30;2.67;;;1.42;;
15990;SDS011;8100;50.994;4.538;2023-04-19T16:35:17;3.00;;;2.17;;
15990;SDS011;8100;50.994;4.538;2023-04-19T16:38:05;0.68;;;0.47;;
15990;SDS011;8100;50.994;4.538;2023-04-19T16:40:52;4.47;;;1.95;;
15990;SDS011;8100;50.994;4.538;2023-04-19T16:43:40;3.80;;;2.30;;
15990;SDS011;8100;50.994;4.538;2023-04-19T16:46:28;4.00;;;2.20;;
15990;SDS011;8100;50.994;4.538;2023-04-19T16:49:16;5.20;;;2.28;;
15990;SDS011;8100;50.994;4.538;2023-04-19T16:52:03;2.65;;;1.52;;
15990;SDS011;8100;50.994;4.538;2023-04-19T16:54:50;3.78;;;2.33;;